Strona główna
METAR-TAF:

METAR-TAF

Lotnisko :

Port lotniczy Cherbourg-Maupertus

Cherbourg, Francja

Szerokość geograficzna: 49-39N, Długość geograficzna: 001-28W, wysokość: 138 m

Aktualna obserwacja pogody

Raport powstał 44 minut temu, godzina 12:00 UTC
Wiatr 8 kt od północny zachód, zmienny między zachód i północno-północny zachód
Temperatura 19°C
Wilgotność 73%
Ciśnienie 1016 hPa
Widzialność 10 km lub więcej
Brak chmur poniżej 1500 m i brak chmur cumulonimbus

METAR: LFRC 171200Z AUTO 31008KT 280V340 CAVOK 19/14 Q1016 NOSIG

czas: 14:44 (12:44 UTC)

Prognoza

Raport powstał 1 godzina i 44 minut temu, godzina 11:00 UTC
Prognoza ważna od 17 godzina 12 UTC do 17 godzina 21 UTC
Wiatr 8 kt od północny zachód
Widzialność 10 km lub więcej
Brak chmur poniżej 1500 m i brak chmur cumulonimbus
Stopniowe zmiany
od 17 godzina 17 UTC do 17 godzina 19 UTC
Wiatr 8 kt od zachód

TAF: LFRC 171100Z 1712/1721 31008KT CAVOK BECMG 1717/1719 26008KT

Obserwacja i prognoza pogody dla ponad 4000 lotnisk (raport METAR i TAF).

Dostępne stacje oznaczono żółtymi i czerwonymi punktami na mapie.

Najedź kursorem aby zobaczyć nazwę stacji.

Kliknij aby zobaczyć obserwacje i prognozy pogody.

Aby zmienić mapę: kliknij na zielony przycisk z czarnym krzyżykiem, aby powiększyć; na zielony przycisk z myślnikiem, aby pomniejszyć; na zielone strzałki, aby przejść do map sąsiednich.


METAR-TAF: